sensor_id;sensor_type;location;lat;lon;timestamp;pressure;altitude;pressure_sealevel;temperature;humidity
12775;BME280;6451;42.630;23.382;2022-11-13T00:00:19;95816.22;;;8.89;100.00
12775;BME280;6451;42.630;23.382;2022-11-13T00:02:46;95822.56;;;8.84;100.00
12775;BME280;6451;42.630;23.382;2022-11-13T00:05:13;95804.59;;;8.75;100.00
12775;BME280;6451;42.630;23.382;2022-11-13T00:07:40;95819.16;;;8.93;100.00
12775;BME280;6451;42.630;23.382;2022-11-13T00:10:09;95781.81;;;8.62;100.00
12775;BME280;6451;42.630;23.382;2022-11-13T00:12:35;95813.63;;;8.84;100.00
12775;BME280;6451;42.630;23.382;2022-11-13T00:15:06;95812.13;;;8.91;100.00
12775;BME280;6451;42.630;23.382;2022-11-13T00:17:35;95751.63;;;8.55;100.00
12775;BME280;6451;42.630;23.382;2022-11-13T00:20:02;95808.31;;;8.93;100.00
12775;BME280;6451;42.630;23.382;2022-11-13T00:22:29;95804.03;;;8.91;100.00
12775;BME280;6451;42.630;23.382;2022-11-13T00:24:57;95801.88;;;8.88;100.00
12775;BME280;6451;42.630;23.382;2022-11-13T00:27:24;95774.63;;;8.85;100.00
12775;BME280;6451;42.630;23.382;2022-11-13T00:29:51;95797.41;;;8.98;100.00
12775;BME280;6451;42.630;23.382;2022-11-13T00:32:19;95796.28;;;8.85;100.00
12775;BME280;6451;42.630;23.382;2022-11-13T00:34:46;95781.31;;;8.74;100.00
12775;BME280;6451;42.630;23.382;2022-11-13T00:37:13;95779.94;;;8.76;100.00
12775;BME280;6451;42.630;23.382;2022-11-13T00:39:40;95766.59;;;8.80;100.00
12775;BME280;6451;42.630;23.382;2022-11-13T00:42:07;95793.28;;;8.86;100.00
12775;BME280;6451;42.630;23.382;2022-11-13T00:44:34;95770.41;;;8.79;100.00
12775;BME280;6451;42.630;23.382;2022-11-13T00:47:02;95777.44;;;8.94;100.00
12775;BME280;6451;42.630;23.382;2022-11-13T00:49:31;95783.66;;;8.94;100.00
12775;BME280;6451;42.630;23.382;2022-11-13T00:51:58;95792.28;;;8.96;100.00
12775;BME280;6451;42.630;23.382;2022-11-13T00:54:27;95789.78;;;9.00;100.00
12775;BME280;6451;42.630;23.382;2022-11-13T00:56:55;95794.97;;;8.96;100.00
12775;BME280;6451;42.630;23.382;2022-11-13T00:59:22;95790.59;;;9.00;100.00
12775;BME280;6451;42.630;23.382;2022-11-13T01:01:49;95783.75;;;9.16;100.00
12775;BME280;6451;42.630;23.382;2022-11-13T01:04:15;95783.28;;;9.14;100.00
12775;BME280;6451;42.630;23.382;2022-11-13T01:06:44;95765.91;;;9.02;100.00
12775;BME280;6451;42.630;23.382;2022-11-13T01:09:11;95790.38;;;9.24;100.00
12775;BME280;6451;42.630;23.382;2022-11-13T01:11:37;95788.38;;;9.16;100.00
12775;BME280;6451;42.630;23.382;2022-11-13T01:14:04;95783.66;;;9.08;100.00
12775;BME280;6451;42.630;23.382;2022-11-13T01:16:31;95783.75;;;9.03;100.00
12775;BME280;6451;42.630;23.382;2022-11-13T01:18:58;95782.06;;;8.93;100.00
12775;BME280;6451;42.630;23.382;2022-11-13T01:21:26;95766.63;;;8.94;100.00
12775;BME280;6451;42.630;23.382;2022-11-13T01:23:54;95772.22;;;8.83;100.00
12775;BME280;6451;42.630;23.382;2022-11-13T01:26:24;95779.97;;;8.90;100.00
12775;BME280;6451;42.630;23.382;2022-11-13T01:28:55;95779.97;;;8.90;100.00
12775;BME280;6451;42.630;23.382;2022-11-13T01:31:25;95784.97;;;8.83;100.00
12775;BME280;6451;42.630;23.382;2022-11-13T01:33:52;95759.97;;;8.72;100.00
12775;BME280;6451;42.630;23.382;2022-11-13T01:36:20;95763.28;;;8.69;100.00
12775;BME280;6451;42.630;23.382;2022-11-13T01:38:47;95775.91;;;8.74;100.00
12775;BME280;6451;42.630;23.382;2022-11-13T01:41:18;95719.00;;;8.51;100.00
12775;BME280;6451;42.630;23.382;2022-11-13T01:43:46;95775.81;;;8.79;100.00
12775;BME280;6451;42.630;23.382;2022-11-13T01:46:20;95773.13;;;8.79;100.00
12775;BME280;6451;42.630;23.382;2022-11-13T01:48:53;95766.59;;;8.80;100.00
12775;BME280;6451;42.630;23.382;2022-11-13T01:51:26;95731.03;;;8.59;100.00
12775;BME280;6451;42.630;23.382;2022-11-13T01:53:56;95735.03;;;8.61;100.00
12775;BME280;6451;42.630;23.382;2022-11-13T01:56:25;95761.28;;;8.88;100.00
12775;BME280;6451;42.630;23.382;2022-11-13T01:58:56;95759.22;;;8.99;100.00
12775;BME280;6451;42.630;23.382;2022-11-13T02:01:24;95755.78;;;8.94;100.00
12775;BME280;6451;42.630;23.382;2022-11-13T02:03:51;95762.50;;;8.96;100.00
12775;BME280;6451;42.630;23.382;2022-11-13T02:06:19;95756.28;;;8.96;100.00
12775;BME280;6451;42.630;23.382;2022-11-13T02:08:48;95702.56;;;8.61;100.00
12775;BME280;6451;42.630;23.382;2022-11-13T02:11:16;95766.31;;;9.09;100.00
12775;BME280;6451;42.630;23.382;2022-11-13T02:13:46;95766.41;;;9.04;100.00
12775;BME280;6451;42.630;23.382;2022-11-13T02:16:14;95727.59;;;8.81;100.00
12775;BME280;6451;42.630;23.382;2022-11-13T02:18:42;95763.91;;;9.07;100.00
12775;BME280;6451;42.630;23.382;2022-11-13T02:21:19;95744.38;;;8.83;100.00
12775;BME280;6451;42.630;23.382;2022-11-13T02:23:55;95765.13;;;9.15;100.00
12775;BME280;6451;42.630;23.382;2022-11-13T02:26:26;95733.53;;;8.83;100.00
12775;BME280;6451;42.630;23.382;2022-11-13T02:28:56;95762.50;;;8.96;100.00
12775;BME280;6451;42.630;23.382;2022-11-13T02:31:23;95744.16;;;8.79;100.00
12775;BME280;6451;42.630;23.382;2022-11-13T02:33:49;95759.00;;;8.96;100.00
12775;BME280;6451;42.630;23.382;2022-11-13T02:36:19;95759.28;;;8.94;100.00
12775;BME280;6451;42.630;23.382;2022-11-13T02:38:47;95761.69;;;8.96;100.00
12775;BME280;6451;42.630;23.382;2022-11-13T02:41:15;95723.41;;;8.75;100.00
12775;BME280;6451;42.630;23.382;2022-11-13T02:43:43;95752.78;;;8.95;100.00
12775;BME280;6451;42.630;23.382;2022-11-13T02:46:11;95754.97;;;8.93;100.00
12775;BME280;6451;42.630;23.382;2022-11-13T02:48:39;95699.94;;;8.56;100.00
12775;BME280;6451;42.630;23.382;2022-11-13T02:51:06;95757.50;;;8.89;100.00
12775;BME280;6451;42.630;23.382;2022-11-13T02:53:33;95756.41;;;8.90;100.00
12775;BME280;6451;42.630;23.382;2022-11-13T02:56:00;95742.25;;;8.80;100.00
12775;BME280;6451;42.630;23.382;2022-11-13T02:58:27;95718.97;;;8.65;100.00
12775;BME280;6451;42.630;23.382;2022-11-13T03:00:56;95755.19;;;8.97;100.00
12775;BME280;6451;42.630;23.382;2022-11-13T03:03:22;95766.63;;;9.07;100.00
12775;BME280;6451;42.630;23.382;2022-11-13T03:05:50;95771.25;;;9.21;100.00
12775;BME280;6451;42.630;23.382;2022-11-13T03:08:17;95760.91;;;9.23;100.00
12775;BME280;6451;42.630;23.382;2022-11-13T03:10:44;95753.78;;;9.13;100.00
12775;BME280;6451;42.630;23.382;2022-11-13T03:13:11;95752.88;;;9.17;100.00
12775;BME280;6451;42.630;23.382;2022-11-13T03:15:39;95767.13;;;9.23;100.00
12775;BME280;6451;42.630;23.382;2022-11-13T03:18:08;95764.00;;;9.30;100.00
12775;BME280;6451;42.630;23.382;2022-11-13T03:20:36;95757.69;;;9.21;100.00
12775;BME280;6451;42.630;23.382;2022-11-13T03:23:04;95651.72;;;8.58;100.00
12775;BME280;6451;42.630;23.382;2022-11-13T03:25:32;95768.09;;;9.27;100.00
12775;BME280;6451;42.630;23.382;2022-11-13T03:27:59;95726.31;;;9.06;100.00
12775;BME280;6451;42.630;23.382;2022-11-13T03:30:26;95767.38;;;9.35;100.00
12775;BME280;6451;42.630;23.382;2022-11-13T03:32:53;95703.06;;;8.91;100.00
12775;BME280;6451;42.630;23.382;2022-11-13T03:35:23;95762.00;;;9.22;100.00
12775;BME280;6451;42.630;23.382;2022-11-13T03:37:50;95764.59;;;9.27;100.00
12775;BME280;6451;42.630;23.382;2022-11-13T03:40:17;95745.34;;;9.14;100.00
12775;BME280;6451;42.630;23.382;2022-11-13T03:42:44;95720.28;;;8.95;100.00
12775;BME280;6451;42.630;23.382;2022-11-13T03:45:11;95742.75;;;9.09;100.00
12775;BME280;6451;42.630;23.382;2022-11-13T03:47:38;95771.13;;;9.26;100.00
12775;BME280;6451;42.630;23.382;2022-11-13T03:50:07;95775.34;;;9.32;100.00
12775;BME280;6451;42.630;23.382;2022-11-13T03:52:36;95722.41;;;8.98;100.00
12775;BME280;6451;42.630;23.382;2022-11-13T03:55:12;95753.09;;;9.21;100.00
12775;BME280;6451;42.630;23.382;2022-11-13T03:57:39;95777.13;;;9.36;100.00
12775;BME280;6451;42.630;23.382;2022-11-13T04:00:07;95758.59;;;9.30;100.00
12775;BME280;6451;42.630;23.382;2022-11-13T04:02:34;95769.50;;;9.38;100.00
12775;BME280;6451;42.630;23.382;2022-11-13T04:05:01;95776.22;;;9.41;100.00
12775;BME280;6451;42.630;23.382;2022-11-13T04:07:28;95756.59;;;9.22;100.00
12775;BME280;6451;42.630;23.382;2022-11-13T04:09:56;95772.91;;;9.44;100.00
12775;BME280;6451;42.630;23.382;2022-11-13T04:12:23;95781.94;;;9.39;100.00
12775;BME280;6451;42.630;23.382;2022-11-13T04:14:49;95780.13;;;9.35;100.00
12775;BME280;6451;42.630;23.382;2022-11-13T04:17:16;95780.44;;;9.33;100.00
12775;BME280;6451;42.630;23.382;2022-11-13T04:19:43;95745.34;;;9.14;100.00
12775;BME280;6451;42.630;23.382;2022-11-13T04:22:11;95771.50;;;9.33;100.00
12775;BME280;6451;42.630;23.382;2022-11-13T04:24:38;95771.59;;;9.28;100.00
12775;BME280;6451;42.630;23.382;2022-11-13T04:27:06;95774.03;;;9.29;100.00
12775;BME280;6451;42.630;23.382;2022-11-13T04:29:33;95738.44;;;9.08;100.00
12775;BME280;6451;42.630;23.382;2022-11-13T04:32:00;95764.09;;;9.25;100.00
12775;BME280;6451;42.630;23.382;2022-11-13T04:34:29;95778.44;;;9.25;100.00
12775;BME280;6451;42.630;23.382;2022-11-13T04:36:56;95746.16;;;9.01;100.00
12775;BME280;6451;42.630;23.382;2022-11-13T04:39:24;95755.09;;;9.15;100.00
12775;BME280;6451;42.630;23.382;2022-11-13T04:41:51;95769.41;;;9.30;100.00
12775;BME280;6451;42.630;23.382;2022-11-13T04:44:38;95766.00;;;9.24;100.00
12775;BME280;6451;42.630;23.382;2022-11-13T04:47:04;95751.28;;;9.16;100.00
12775;BME280;6451;42.630;23.382;2022-11-13T04:49:31;95746.16;;;9.15;100.00
12775;BME280;6451;42.630;23.382;2022-11-13T04:51:58;95751.56;;;9.15;100.00
12775;BME280;6451;42.630;23.382;2022-11-13T04:54:25;95752.56;;;9.19;100.00
12775;BME280;6451;42.630;23.382;2022-11-13T04:56:52;95765.59;;;9.17;100.00
12775;BME280;6451;42.630;23.382;2022-11-13T04:59:19;95767.22;;;9.18;100.00
12775;BME280;6451;42.630;23.382;2022-11-13T05:01:47;95725.69;;;8.81;100.00
12775;BME280;6451;42.630;23.382;2022-11-13T05:04:16;95720.81;;;8.83;100.00
12775;BME280;6451;42.630;23.382;2022-11-13T05:06:45;95767.41;;;9.08;100.00
12775;BME280;6451;42.630;23.382;2022-11-13T05:09:12;95771.44;;;9.10;100.00
12775;BME280;6451;42.630;23.382;2022-11-13T05:11:39;95770.03;;;9.13;100.00
12775;BME280;6451;42.630;23.382;2022-11-13T05:14:07;95731.63;;;8.83;100.00
12775;BME280;6451;42.630;23.382;2022-11-13T05:16:34;95776.53;;;9.12;100.00
12775;BME280;6451;42.630;23.382;2022-11-13T05:19:03;95777.63;;;9.11;100.00
12775;BME280;6451;42.630;23.382;2022-11-13T05:21:31;95772.84;;;9.08;100.00
12775;BME280;6451;42.630;23.382;2022-11-13T05:23:58;95734.91;;;8.80;100.00
12775;BME280;6451;42.630;23.382;2022-11-13T05:26:25;95779.16;;;9.17;100.00
12775;BME280;6451;42.630;23.382;2022-11-13T05:28:55;95773.53;;;9.13;100.00
12775;BME280;6451;42.630;23.382;2022-11-13T05:31:23;95755.69;;;8.99;100.00
12775;BME280;6451;42.630;23.382;2022-11-13T05:33:50;95740.16;;;8.90;100.00
12775;BME280;6451;42.630;23.382;2022-11-13T05:36:19;95777.06;;;9.14;100.00
12775;BME280;6451;42.630;23.382;2022-11-13T05:38:46;95763.91;;;9.07;100.00
12775;BME280;6451;42.630;23.382;2022-11-13T05:41:16;95756.19;;;9.01;100.00
12775;BME280;6451;42.630;23.382;2022-11-13T05:43:44;95782.56;;;9.23;100.00
12775;BME280;6451;42.630;23.382;2022-11-13T05:46:13;95639.88;;;8.27;100.00
12775;BME280;6451;42.630;23.382;2022-11-13T05:48:41;95780.16;;;9.21;100.00
12775;BME280;6451;42.630;23.382;2022-11-13T05:51:10;95729.03;;;8.92;100.00
12775;BME280;6451;42.630;23.382;2022-11-13T05:53:39;95765.81;;;9.21;100.00
12775;BME280;6451;42.630;23.382;2022-11-13T05:56:09;95780.44;;;9.33;100.00
12775;BME280;6451;42.630;23.382;2022-11-13T05:58:40;95791.41;;;9.28;100.00
12775;BME280;6451;42.630;23.382;2022-11-13T06:01:09;95780.16;;;9.21;100.00
12775;BME280;6451;42.630;23.382;2022-11-13T06:03:37;95795.91;;;9.33;100.00
12775;BME280;6451;42.630;23.382;2022-11-13T06:06:05;95767.50;;;9.16;100.00
12775;BME280;6451;42.630;23.382;2022-11-13T06:08:32;95789.50;;;9.29;100.00
12775;BME280;6451;42.630;23.382;2022-11-13T06:11:02;95659.06;;;8.44;100.00
12775;BME280;6451;42.630;23.382;2022-11-13T06:13:30;95794.19;;;9.37;100.00
12775;BME280;6451;42.630;23.382;2022-11-13T06:15:59;95804.31;;;9.31;100.00
12775;BME280;6451;42.630;23.382;2022-11-13T06:18:27;95799.72;;;9.32;100.00
12775;BME280;6451;42.630;23.382;2022-11-13T06:20:54;95795.31;;;9.36;100.00
12775;BME280;6451;42.630;23.382;2022-11-13T06:23:24;95770.72;;;9.32;100.00
12775;BME280;6451;42.630;23.382;2022-11-13T06:25:50;95792.88;;;9.48;100.00
12775;BME280;6451;42.630;23.382;2022-11-13T06:28:19;95794.16;;;9.51;100.00
12775;BME280;6451;42.630;23.382;2022-11-13T06:30:46;95803.00;;;9.42;100.00
12775;BME280;6451;42.630;23.382;2022-11-13T06:33:13;95796.50;;;9.43;100.00
12775;BME280;6451;42.630;23.382;2022-11-13T06:35:41;95795.50;;;9.39;100.00
12775;BME280;6451;42.630;23.382;2022-11-13T06:38:08;95809.94;;;9.48;100.00
12775;BME280;6451;42.630;23.382;2022-11-13T06:40:37;95786.97;;;9.46;100.00
12775;BME280;6451;42.630;23.382;2022-11-13T06:43:03;95787.44;;;9.48;100.00
12775;BME280;6451;42.630;23.382;2022-11-13T06:45:32;95800.09;;;9.53;100.00
12775;BME280;6451;42.630;23.382;2022-11-13T06:47:59;95796.97;;;9.59;100.00
12775;BME280;6451;42.630;23.382;2022-11-13T06:50:25;95764.56;;;9.40;100.00
12775;BME280;6451;42.630;23.382;2022-11-13T06:52:53;95795.66;;;9.57;100.00
12775;BME280;6451;42.630;23.382;2022-11-13T06:55:20;95786.81;;;9.65;100.00
12775;BME280;6451;42.630;23.382;2022-11-13T06:57:47;95786.31;;;9.63;100.00
12775;BME280;6451;42.630;23.382;2022-11-13T07:00:15;95786.94;;;9.60;100.00
12775;BME280;6451;42.630;23.382;2022-11-13T07:02:43;95779.09;;;9.58;100.00
12775;BME280;6451;42.630;23.382;2022-11-13T07:05:10;95792.63;;;9.72;100.00
12775;BME280;6451;42.630;23.382;2022-11-13T07:07:37;95779.19;;;9.67;100.00
12775;BME280;6451;42.630;23.382;2022-11-13T07:10:05;95798.84;;;9.72;100.00
12775;BME280;6451;42.630;23.382;2022-11-13T07:12:33;95777.56;;;9.66;100.00
12775;BME280;6451;42.630;23.382;2022-11-13T07:15:00;95796.66;;;9.74;100.00
12775;BME280;6451;42.630;23.382;2022-11-13T07:17:27;95795.94;;;9.69;100.00
12775;BME280;6451;42.630;23.382;2022-11-13T07:19:58;95795.53;;;9.75;100.00
12775;BME280;6451;42.630;23.382;2022-11-13T07:22:27;95788.22;;;9.76;100.00
12775;BME280;6451;42.630;23.382;2022-11-13T07:24:54;95797.53;;;9.84;100.00
12775;BME280;6451;42.630;23.382;2022-11-13T07:27:21;95805.69;;;9.70;100.00
12775;BME280;6451;42.630;23.382;2022-11-13T07:29:48;95794.22;;;9.73;100.00
12775;BME280;6451;42.630;23.382;2022-11-13T07:32:14;95790.28;;;9.79;100.00
12775;BME280;6451;42.630;23.382;2022-11-13T07:34:41;95795.00;;;9.87;100.00
12775;BME280;6451;42.630;23.382;2022-11-13T07:37:11;95760.94;;;9.59;100.00
12775;BME280;6451;42.630;23.382;2022-11-13T07:39:40;95794.41;;;9.90;100.00
12775;BME280;6451;42.630;23.382;2022-11-13T07:42:07;95795.53;;;9.75;100.00
12775;BME280;6451;42.630;23.382;2022-11-13T07:44:36;95807.25;;;9.85;100.00
12775;BME280;6451;42.630;23.382;2022-11-13T07:47:03;95772.53;;;9.73;100.00
12775;BME280;6451;42.630;23.382;2022-11-13T07:49:31;95758.41;;;9.62;100.00
12775;BME280;6451;42.630;23.382;2022-11-13T07:51:58;95794.50;;;9.85;100.00
12775;BME280;6451;42.630;23.382;2022-11-13T07:54:27;95767.81;;;9.79;100.00
12775;BME280;6451;42.630;23.382;2022-11-13T07:56:54;95762.50;;;9.73;100.00
12775;BME280;6451;42.630;23.382;2022-11-13T07:59:21;95790.88;;;9.90;100.00
12775;BME280;6451;42.630;23.382;2022-11-13T08:01:48;95800.31;;;9.92;100.00
12775;BME280;6451;42.630;23.382;2022-11-13T08:04:15;95800.22;;;9.97;100.00
12775;BME280;6451;42.630;23.382;2022-11-13T08:06:42;95787.88;;;9.91;100.00
12775;BME280;6451;42.630;23.382;2022-11-13T08:09:09;95801.00;;;9.98;100.00
12775;BME280;6451;42.630;23.382;2022-11-13T08:11:37;95802.69;;;10.08;100.00
12775;BME280;6451;42.630;23.382;2022-11-13T08:14:04;95801.13;;;10.15;100.00
12775;BME280;6451;42.630;23.382;2022-11-13T08:16:31;95794.78;;;9.97;100.00
12775;BME280;6451;42.630;23.382;2022-11-13T08:18:58;95799.75;;;10.04;100.00
12775;BME280;6451;42.630;23.382;2022-11-13T08:21:25;95794.06;;;10.06;100.00
12775;BME280;6451;42.630;23.382;2022-11-13T08:23:53;95802.34;;;10.09;100.00
12775;BME280;6451;42.630;23.382;2022-11-13T08:26:20;95803.84;;;10.15;100.00
12775;BME280;6451;42.630;23.382;2022-11-13T08:28:49;95771.78;;;10.17;100.00
12775;BME280;6451;42.630;23.382;2022-11-13T08:31:16;95781.72;;;10.22;100.00
12775;BME280;6451;42.630;23.382;2022-11-13T08:33:44;95775.06;;;10.06;100.00
12775;BME280;6451;42.630;23.382;2022-11-13T08:36:11;95782.69;;;10.03;100.00
12775;BME280;6451;42.630;23.382;2022-11-13T08:38:38;95792.00;;;10.11;100.00
12775;BME280;6451;42.630;23.382;2022-11-13T08:41:05;95802.34;;;10.09;100.00
12775;BME280;6451;42.630;23.382;2022-11-13T08:43:32;95806.50;;;10.07;100.00
12775;BME280;6451;42.630;23.382;2022-11-13T08:46:00;95777.81;;;9.92;100.00
12775;BME280;6451;42.630;23.382;2022-11-13T08:48:28;95802.94;;;10.20;100.00
12775;BME280;6451;42.630;23.382;2022-11-13T08:50:55;95803.53;;;10.17;100.00
12775;BME280;6451;42.630;23.382;2022-11-13T08:53:23;95802.06;;;10.11;100.00
12775;BME280;6451;42.630;23.382;2022-11-13T08:55:50;95810.88;;;10.16;100.00
12775;BME280;6451;42.630;23.382;2022-11-13T08:58:18;95816.78;;;10.18;100.00
12775;BME280;6451;42.630;23.382;2022-11-13T09:00:45;95809.38;;;10.10;100.00
12775;BME280;6451;42.630;23.382;2022-11-13T09:03:14;95812.97;;;10.19;100.00
12775;BME280;6451;42.630;23.382;2022-11-13T09:05:42;95815.91;;;10.09;100.00
12775;BME280;6451;42.630;23.382;2022-11-13T09:08:10;95792.66;;;9.94;100.00
12775;BME280;6451;42.630;23.382;2022-11-13T09:10:37;95814.31;;;10.08;100.00
12775;BME280;6451;42.630;23.382;2022-11-13T09:13:05;95802.69;;;10.08;100.00
12775;BME280;6451;42.630;23.382;2022-11-13T09:15:33;95816.72;;;10.23;100.00
12775;BME280;6451;42.630;23.382;2022-11-13T09:18:01;95806.69;;;10.10;100.00
12775;BME280;6451;42.630;23.382;2022-11-13T09:20:30;95783.19;;;10.06;100.00
12775;BME280;6451;42.630;23.382;2022-11-13T09:22:58;95817.50;;;10.24;100.00
12775;BME280;6451;42.630;23.382;2022-11-13T09:25:26;95815.97;;;10.32;100.00
12775;BME280;6451;42.630;23.382;2022-11-13T09:27:54;95806.13;;;10.22;100.00
12775;BME280;6451;42.630;23.382;2022-11-13T09:30:21;95806.88;;;10.14;100.00
12775;BME280;6451;42.630;23.382;2022-11-13T09:32:51;95804.97;;;10.14;100.00
12775;BME280;6451;42.630;23.382;2022-11-13T09:35:19;95793.41;;;10.22;100.00
12775;BME280;6451;42.630;23.382;2022-11-13T09:38:01;95797.53;;;10.20;100.00
12775;BME280;6451;42.630;23.382;2022-11-13T09:40:30;95791.56;;;10.18;100.00
12775;BME280;6451;42.630;23.382;2022-11-13T09:42:58;95787.16;;;10.22;100.00
12775;BME280;6451;42.630;23.382;2022-11-13T09:45:27;95792.19;;;10.28;100.00
12775;BME280;6451;42.630;23.382;2022-11-13T09:48:03;95793.47;;;10.31;100.00
12775;BME280;6451;42.630;23.382;2022-11-13T09:50:33;95745.16;;;10.19;100.00
12775;BME280;6451;42.630;23.382;2022-11-13T09:53:02;95753.75;;;10.35;100.00
12775;BME280;6451;42.630;23.382;2022-11-13T09:58:20;95747.03;;;10.64;100.00
12775;BME280;6451;42.630;23.382;2022-11-13T10:00:49;95767.56;;;10.78;100.00
12775;BME280;6451;42.630;23.382;2022-11-13T10:03:27;95757.97;;;10.81;100.00
12775;BME280;6451;42.630;23.382;2022-11-13T10:06:02;95760.16;;;11.01;100.00
12775;BME280;6451;42.630;23.382;2022-11-13T10:08:38;95764.00;;;11.00;100.00
12775;BME280;6451;42.630;23.382;2022-11-13T10:11:20;95761.97;;;11.14;100.00
12775;BME280;6451;42.630;23.382;2022-11-13T10:13:52;95770.16;;;11.32;100.00
12775;BME280;6451;42.630;23.382;2022-11-13T10:16:28;95734.34;;;11.21;100.00
12775;BME280;6451;42.630;23.382;2022-11-13T10:19:10;95760.91;;;11.33;100.00
12775;BME280;6451;42.630;23.382;2022-11-13T10:21:43;95758.03;;;11.29;100.00
12775;BME280;6451;42.630;23.382;2022-11-13T10:24:15;95745.41;;;11.42;100.00
12775;BME280;6451;42.630;23.382;2022-11-13T10:26:42;95748.78;;;11.39;100.00
12775;BME280;6451;42.630;23.382;2022-11-13T10:29:11;95747.38;;;11.50;100.00
12775;BME280;6451;42.630;23.382;2022-11-13T10:31:43;95725.56;;;11.33;100.00
12775;BME280;6451;42.630;23.382;2022-11-13T10:34:12;95750.25;;;11.71;100.00
12775;BME280;6451;42.630;23.382;2022-11-13T10:36:48;95751.56;;;11.74;100.00
12775;BME280;6451;42.630;23.382;2022-11-13T10:39:18;95742.09;;;11.80;100.00
12775;BME280;6451;42.630;23.382;2022-11-13T10:41:46;95740.38;;;11.84;100.00
12775;BME280;6451;42.630;23.382;2022-11-13T10:44:22;95743.25;;;11.96;100.00
12775;BME280;6451;42.630;23.382;2022-11-13T10:46:48;95736.97;;;11.78;100.00
12775;BME280;6451;42.630;23.382;2022-11-13T10:49:18;95700.50;;;11.45;100.00
12775;BME280;6451;42.630;23.382;2022-11-13T10:51:53;95726.00;;;11.83;100.00
12775;BME280;6451;42.630;23.382;2022-11-13T10:54:24;95723.09;;;11.88;100.00
12775;BME280;6451;42.630;23.382;2022-11-13T10:56:57;95722.28;;;11.88;100.00
12775;BME280;6451;42.630;23.382;2022-11-13T10:59:24;95717.16;;;11.69;100.00
12775;BME280;6451;42.630;23.382;2022-11-13T11:01:51;95727.09;;;12.00;100.00
12775;BME280;6451;42.630;23.382;2022-11-13T11:04:23;95702.44;;;11.61;100.00
12775;BME280;6451;42.630;23.382;2022-11-13T11:06:52;95708.66;;;11.79;100.00
12775;BME280;6451;42.630;23.382;2022-11-13T11:09:24;95720.53;;;11.75;100.00
12775;BME280;6451;42.630;23.382;2022-11-13T11:12:04;95710.78;;;11.82;100.00
12775;BME280;6451;42.630;23.382;2022-11-13T11:14:55;95705.81;;;11.76;100.00
12775;BME280;6451;42.630;23.382;2022-11-13T11:17:26;95692.81;;;11.55;100.00
12775;BME280;6451;42.630;23.382;2022-11-13T11:19:58;95718.59;;;11.75;100.00
12775;BME280;6451;42.630;23.382;2022-11-13T11:22:30;95718.41;;;11.72;100.00
12775;BME280;6451;42.630;23.382;2022-11-13T11:25:04;95706.25;;;11.52;100.00
12775;BME280;6451;42.630;23.382;2022-11-13T11:27:34;95668.34;;;11.21;100.00
12775;BME280;6451;42.630;23.382;2022-11-13T11:30:07;95708.47;;;11.50;100.00
12775;BME280;6451;42.630;23.382;2022-11-13T11:32:42;95701.94;;;11.51;100.00
12775;BME280;6451;42.630;23.382;2022-11-13T11:35:15;95701.94;;;11.51;100.00
12775;BME280;6451;42.630;23.382;2022-11-13T11:37:50;95695.41;;;11.52;100.00
12775;BME280;6451;42.630;23.382;2022-11-13T11:40:26;95700.97;;;11.55;100.00
12775;BME280;6451;42.630;23.382;2022-11-13T11:43:02;95690.75;;;11.61;100.00
12775;BME280;6451;42.630;23.382;2022-11-13T11:45:36;95699.72;;;11.87;100.00
12775;BME280;6451;42.630;23.382;2022-11-13T11:48:10;95669.47;;;11.63;100.00
12775;BME280;6451;42.630;23.382;2022-11-13T11:50:43;95685.13;;;11.57;100.00
12775;BME280;6451;42.630;23.382;2022-11-13T11:53:15;95692.16;;;11.50;100.00
12775;BME280;6451;42.630;23.382;2022-11-13T11:56:10;95686.13;;;11.44;100.00
12775;BME280;6451;42.630;23.382;2022-11-13T12:02:08;95669.16;;;11.64;100.00
12775;BME280;6451;42.630;23.382;2022-11-13T12:04:51;95681.47;;;11.45;100.00
12775;BME280;6451;42.630;23.382;2022-11-13T12:07:30;95603.41;;;11.10;100.00
12775;BME280;6451;42.630;23.382;2022-11-13T12:10:06;95685.94;;;11.49;100.00
12775;BME280;6451;42.630;23.382;2022-11-13T12:12:56;95687.06;;;11.57;100.00
12775;BME280;6451;42.630;23.382;2022-11-13T12:15:30;95682.28;;;11.71;100.00
12775;BME280;6451;42.630;23.382;2022-11-13T12:18:11;95687.06;;;11.57;100.00
12775;BME280;6451;42.630;23.382;2022-11-13T12:20:43;95667.75;;;11.58;100.00
12775;BME280;6451;42.630;23.382;2022-11-13T12:23:23;95671.72;;;11.52;100.00
12775;BME280;6451;42.630;23.382;2022-11-13T12:25:55;95674.13;;;11.62;100.00
12775;BME280;6451;42.630;23.382;2022-11-13T12:28:32;95655.72;;;11.68;100.00
12775;BME280;6451;42.630;23.382;2022-11-13T12:31:11;95654.44;;;11.57;100.00
12775;BME280;6451;42.630;23.382;2022-11-13T12:33:46;95644.06;;;11.50;100.00
12775;BME280;6451;42.630;23.382;2022-11-13T12:36:18;95661.78;;;11.65;100.00
12775;BME280;6451;42.630;23.382;2022-11-13T12:38:51;95671.25;;;11.76;100.00
12775;BME280;6451;42.630;23.382;2022-11-13T12:41:26;95677.81;;;11.58;100.00
12775;BME280;6451;42.630;23.382;2022-11-13T12:44:13;95663.41;;;11.66;100.00
12775;BME280;6451;42.630;23.382;2022-11-13T12:46:45;95652.03;;;11.73;100.00
12775;BME280;6451;42.630;23.382;2022-11-13T12:49:26;95661.66;;;11.70;100.00
12775;BME280;6451;42.630;23.382;2022-11-13T12:51:55;95668.72;;;11.97;100.00
12775;BME280;6451;42.630;23.382;2022-11-13T12:54:27;95650.63;;;11.92;100.00
12775;BME280;6451;42.630;23.382;2022-11-13T12:57:05;95662.44;;;11.88;100.00
12775;BME280;6451;42.630;23.382;2022-11-13T12:59:36;95667.28;;;11.91;100.00
12775;BME280;6451;42.630;23.382;2022-11-13T13:02:20;95650.97;;;11.82;100.00
12775;BME280;6451;42.630;23.382;2022-11-13T13:05:01;95666.78;;;11.89;100.00
12775;BME280;6451;42.630;23.382;2022-11-13T13:10:30;95658.13;;;11.78;100.00
12775;BME280;6451;42.630;23.382;2022-11-13T13:13:06;95660.03;;;11.78;100.00
12775;BME280;6451;42.630;23.382;2022-11-13T13:15:38;95647.09;;;11.66;100.00
12775;BME280;6451;42.630;23.382;2022-11-13T13:18:09;95657.19;;;11.65;100.00